createdAt,value
2023-03-22T00:01:45.466Z,178.02
2023-03-22T00:05:45.561Z,180.24
2023-03-22T00:09:45.626Z,179.17
2023-03-22T00:13:45.739Z,202.02
2023-03-22T00:17:45.932Z,202.60
2023-03-22T00:21:45.956Z,207.00
2023-03-22T00:25:46.081Z,193.49
2023-03-22T00:29:46.266Z,197.91
2023-03-22T00:33:46.410Z,181.91
2023-03-22T00:37:46.506Z,190.37
2023-03-22T00:41:46.665Z,194.66
2023-03-22T00:45:46.869Z,190.88
2023-03-22T00:49:46.906Z,176.81
2023-03-22T00:53:47.007Z,178.93
2023-03-22T00:57:47.115Z,173.51
2023-03-22T01:01:47.242Z,186.38
2023-03-22T01:05:47.367Z,188.86
2023-03-22T01:09:47.425Z,189.62
2023-03-22T01:13:47.467Z,189.67
2023-03-22T01:17:47.654Z,177.49
2023-03-22T01:21:47.691Z,180.61
2023-03-22T01:25:47.759Z,192.97
2023-03-22T01:29:47.818Z,183.39
2023-03-22T01:33:47.975Z,174.81
2023-03-22T01:37:48.192Z,173.75
2023-03-22T01:41:48.402Z,175.44
2023-03-22T01:45:48.650Z,172.35
2023-03-22T01:49:48.660Z,166.45
2023-03-22T01:53:48.774Z,162.99
2023-03-22T01:57:48.859Z,168.90
2023-03-22T02:01:48.952Z,159.24
2023-03-22T02:05:49.110Z,160.20
2023-03-22T02:09:49.187Z,160.77
2023-03-22T02:13:49.292Z,162.07
2023-03-22T02:17:49.406Z,145.87
2023-03-22T02:21:49.510Z,145.65
2023-03-22T02:25:49.652Z,156.91
2023-03-22T02:29:49.834Z,156.02
2023-03-22T02:33:49.890Z,165.08
2023-03-22T02:37:50.063Z,160.21
2023-03-22T02:41:50.177Z,155.80
2023-03-22T02:45:50.317Z,156.33
2023-03-22T02:49:50.367Z,162.36
2023-03-22T02:53:50.447Z,166.01
2023-03-22T02:57:50.625Z,165.61
2023-03-22T03:01:50.746Z,163.42
2023-03-22T03:05:50.754Z,164.60
2023-03-22T03:09:50.886Z,152.42
2023-03-22T03:13:51.013Z,154.02
2023-03-22T03:17:51.138Z,153.08
2023-03-22T03:21:51.212Z,157.72
2023-03-22T03:25:51.326Z,151.00
2023-03-22T03:29:51.457Z,166.61
2023-03-22T03:33:51.577Z,165.51
2023-03-22T03:37:51.813Z,166.70
2023-03-22T03:41:51.784Z,162.71
2023-03-22T03:45:51.992Z,167.93
2023-03-22T03:49:51.996Z,181.60
2023-03-22T03:53:52.020Z,190.40
2023-03-22T03:57:52.173Z,201.59
2023-03-22T04:01:52.357Z,179.06
2023-03-22T04:05:52.429Z,191.59
2023-03-22T04:09:52.567Z,189.42
2023-03-22T04:13:52.652Z,168.90
2023-03-22T04:17:52.839Z,175.96
2023-03-22T04:21:53.033Z,185.10
2023-03-22T04:25:53.140Z,198.56
2023-03-22T04:29:53.274Z,199.54
2023-03-22T04:33:53.477Z,194.05
2023-03-22T04:37:53.613Z,194.39
2023-03-22T04:41:53.818Z,193.92
2023-03-22T04:45:53.931Z,194.40
2023-03-22T04:49:53.995Z,192.36
2023-03-22T04:53:54.108Z,197.09
2023-03-22T04:57:54.223Z,200.85
2023-03-22T05:01:54.470Z,201.58
2023-03-22T05:05:54.381Z,202.45
2023-03-22T05:09:54.547Z,206.29
2023-03-22T05:13:54.663Z,209.54
2023-03-22T05:17:54.799Z,207.72
2023-03-22T05:21:54.827Z,194.49
2023-03-22T05:25:54.869Z,197.15
2023-03-22T05:29:55.024Z,193.39
2023-03-22T05:33:55.104Z,204.08
2023-03-22T05:37:55.229Z,213.65
2023-03-22T05:41:55.841Z,213.78
2023-03-22T05:45:55.379Z,209.89
2023-03-22T05:49:55.477Z,194.20
2023-03-22T05:53:55.680Z,199.43
2023-03-22T05:57:55.836Z,206.90
2023-03-22T06:01:55.960Z,205.70
2023-03-22T06:05:56.148Z,206.01
2023-03-22T06:09:56.196Z,213.49
2023-03-22T06:13:56.405Z,219.44
2023-03-22T06:17:56.483Z,223.66
2023-03-22T06:21:56.581Z,225.94
2023-03-22T06:25:56.683Z,233.09
2023-03-22T06:29:56.795Z,232.72
2023-03-22T06:33:56.830Z,229.23
2023-03-22T06:37:56.947Z,212.61
2023-03-22T06:41:57.064Z,222.45
2023-03-22T06:45:57.324Z,207.71
2023-03-22T06:49:57.365Z,199.24
2023-03-22T06:53:57.481Z,180.68
2023-03-22T06:57:57.621Z,183.65
2023-03-22T07:01:57.669Z,187.99
2023-03-22T07:05:57.770Z,190.27
2023-03-22T07:09:57.888Z,181.45
2023-03-22T07:13:58.067Z,186.85
2023-03-22T07:17:58.145Z,193.61
2023-03-22T07:21:58.276Z,179.02
2023-03-22T07:25:58.340Z,166.04
2023-03-22T07:29:58.427Z,162.37
2023-03-22T07:33:58.497Z,162.27
2023-03-22T07:37:58.574Z,152.47
2023-03-22T07:41:58.715Z,149.02
2023-03-22T07:45:58.981Z,144.73
2023-03-22T07:49:59.367Z,144.78
2023-03-22T07:53:59.151Z,150.10
2023-03-22T07:57:59.253Z,162.66
2023-03-22T08:01:59.366Z,140.48
2023-03-22T08:05:59.453Z,164.99
2023-03-22T08:09:59.604Z,161.77
2023-03-22T08:13:59.659Z,131.16
2023-03-22T08:17:59.754Z,116.26
2023-03-22T08:21:59.857Z,122.95
2023-03-22T08:26:00.012Z,117.93
2023-03-22T08:30:00.030Z,129.19
2023-03-22T08:34:00.173Z,90.54
2023-03-22T08:38:00.215Z,56.81
2023-03-22T08:42:00.321Z,66.25
2023-03-22T08:46:00.441Z,66.12
2023-03-22T08:50:00.521Z,97.70
2023-03-22T08:54:00.627Z,46.84
2023-03-22T08:58:00.745Z,39.14
2023-03-22T09:02:01.046Z,27.44
2023-03-22T09:06:01.032Z,100.48
2023-03-22T09:10:01.186Z,12.35
2023-03-22T09:14:01.278Z,34.36
2023-03-22T09:18:01.360Z,12.51
2023-03-22T09:22:01.498Z,23.00
2023-03-22T09:26:01.617Z,34.19
2023-03-22T09:30:01.659Z,106.61
2023-03-22T09:34:01.855Z,49.30
2023-03-22T09:38:01.976Z,38.33
2023-03-22T09:42:02.185Z,39.58
2023-03-22T09:46:02.290Z,25.87
2023-03-22T09:50:02.378Z,31.56
2023-03-22T09:54:02.497Z,33.76
2023-03-22T09:58:02.624Z,64.81
2023-03-22T10:02:03.055Z,34.85
2023-03-22T10:06:02.906Z,42.50
2023-03-22T10:10:02.967Z,22.82
2023-03-22T10:14:03.085Z,32.74
2023-03-22T10:18:03.217Z,27.46
2023-03-22T10:22:03.352Z,19.88
2023-03-22T10:26:03.455Z,24.32
2023-03-22T10:30:03.613Z,20.99
2023-03-22T10:34:03.681Z,24.24
2023-03-22T10:38:03.720Z,52.73
2023-03-22T10:42:03.872Z,30.93
2023-03-22T10:46:04.043Z,41.57
2023-03-22T10:50:04.227Z,28.90
2023-03-22T10:54:04.260Z,6.51
2023-03-22T10:58:04.384Z,18.21
2023-03-22T11:02:04.626Z,35.75
2023-03-22T11:06:04.646Z,63.44
2023-03-22T11:10:04.852Z,78.64
2023-03-22T11:14:04.962Z,70.99
2023-03-22T11:18:05.089Z,50.10
2023-03-22T11:22:05.159Z,29.89
2023-03-22T11:26:05.317Z,44.68
2023-03-22T11:30:05.438Z,60.01
2023-03-22T11:34:05.505Z,72.79
2023-03-22T11:38:05.654Z,28.50
2023-03-22T11:42:05.767Z,56.88
2023-03-22T11:46:05.874Z,64.68
2023-03-22T11:50:06.891Z,45.20
2023-03-22T11:54:06.045Z,40.29
2023-03-22T11:58:06.134Z,30.06
2023-03-22T12:02:06.309Z,30.11
2023-03-22T12:06:06.493Z,44.18
2023-03-22T12:10:06.619Z,36.97
2023-03-22T12:14:06.651Z,13.71
2023-03-22T12:18:07.960Z,40.23
2023-03-22T12:22:06.886Z,27.44
2023-03-22T12:26:06.976Z,47.53
2023-03-22T12:30:07.106Z,37.68
2023-03-22T12:34:07.256Z,42.15
2023-03-22T12:38:07.311Z,55.08
2023-03-22T12:42:07.391Z,61.55
2023-03-22T12:46:07.505Z,57.48
2023-03-22T12:50:07.632Z,55.54
2023-03-22T12:54:07.716Z,54.61
2023-03-22T12:58:07.859Z,57.74
2023-03-22T13:02:08.020Z,61.07
2023-03-22T13:06:08.098Z,63.35
2023-03-22T13:10:08.207Z,64.99
2023-03-22T13:14:08.270Z,71.00
2023-03-22T13:18:08.453Z,85.25
2023-03-22T13:22:08.558Z,88.51
2023-03-22T13:26:08.631Z,96.09
2023-03-22T13:30:08.769Z,101.49
2023-03-22T13:34:08.922Z,96.12
2023-03-22T13:38:09.023Z,110.61
2023-03-22T13:42:09.065Z,106.97
2023-03-22T13:46:09.179Z,93.97
2023-03-22T13:50:09.198Z,94.60
2023-03-22T13:54:09.272Z,108.12
2023-03-22T13:58:09.402Z,89.03
2023-03-22T14:02:09.575Z,75.83
2023-03-22T14:06:09.665Z,85.31
2023-03-22T14:10:09.753Z,94.74
2023-03-22T14:14:09.838Z,96.85
2023-03-22T14:18:09.945Z,129.86
2023-03-22T14:47:10.276Z,25.00
2023-03-22T14:51:10.267Z,0.00
2023-03-22T14:55:10.208Z,0.00
2023-03-22T14:59:10.159Z,205.33
2023-03-22T15:03:11.506Z,373.82
2023-03-22T15:07:10.088Z,157.77
2023-03-22T15:11:11.527Z,163.15
2023-03-22T15:15:10.002Z,23.68
2023-03-22T15:19:10.350Z,11.55
2023-03-22T15:23:10.114Z,153.99
2023-03-22T15:27:10.327Z,36.80
2023-03-22T15:31:10.283Z,122.86
2023-03-22T15:35:10.364Z,161.90
2023-03-22T15:39:10.494Z,116.36
2023-03-22T15:43:10.606Z,391.45
2023-03-22T15:47:10.623Z,383.44
2023-03-22T15:51:10.764Z,402.13
2023-03-22T15:55:10.857Z,161.82
2023-03-22T15:59:10.987Z,178.23
2023-03-22T16:03:11.220Z,185.99
2023-03-22T16:07:11.274Z,324.93
2023-03-22T16:11:11.302Z,283.39
2023-03-22T16:15:11.464Z,249.24
2023-03-22T16:19:11.653Z,244.58
2023-03-22T16:23:11.685Z,236.69
2023-03-22T16:27:11.941Z,234.63
2023-03-22T16:31:12.149Z,258.58
2023-03-22T16:35:12.216Z,249.35
2023-03-22T16:39:12.417Z,204.77
2023-03-22T16:43:12.573Z,234.70
2023-03-22T16:47:12.750Z,166.12
2023-03-22T16:51:12.859Z,152.74
2023-03-22T16:55:12.965Z,206.93
2023-03-22T16:59:13.058Z,206.12
2023-03-22T17:03:13.229Z,299.65
2023-03-22T17:07:13.356Z,237.68
2023-03-22T17:11:13.444Z,202.87
2023-03-22T17:15:13.508Z,207.19
2023-03-22T17:19:13.686Z,163.16
2023-03-22T17:23:13.737Z,116.30
2023-03-22T17:27:13.862Z,222.99
2023-03-22T17:31:14.018Z,235.94
2023-03-22T17:35:14.158Z,206.35
2023-03-22T17:39:32.982Z,195.29
2023-03-22T17:43:15.247Z,227.46
2023-03-22T17:51:14.206Z,248.43
2023-03-22T17:55:19.650Z,266.35
2023-03-22T17:59:15.105Z,264.76
2023-03-22T18:03:14.089Z,230.31
2023-03-22T18:07:14.033Z,242.03
2023-03-22T18:11:14.065Z,237.94
2023-03-22T18:15:14.183Z,235.89
2023-03-22T18:19:14.321Z,202.60
2023-03-22T18:23:14.444Z,207.03
2023-03-22T18:27:15.860Z,222.02
2023-03-22T18:31:14.687Z,204.49
2023-03-22T18:35:14.830Z,189.89
2023-03-22T18:39:55.208Z,209.58
2023-03-22T18:43:15.855Z,208.13
2023-03-22T18:47:14.862Z,201.53
2023-03-22T18:51:14.818Z,192.31
2023-03-22T18:55:28.904Z,190.91
2023-03-22T18:59:15.859Z,175.82
2023-03-22T19:03:14.776Z,176.45
2023-03-22T19:07:19.960Z,160.87
2023-03-22T19:11:15.691Z,154.07
2023-03-22T19:19:14.653Z,155.60
2023-03-22T19:23:14.593Z,161.78
2023-03-22T19:27:18.339Z,160.68
2023-03-22T19:31:15.520Z,147.84
2023-03-22T19:35:14.486Z,148.95
2023-03-22T19:39:15.192Z,172.42
2023-03-22T19:43:14.548Z,170.50
2023-03-22T19:47:14.675Z,165.88
2023-03-22T19:51:14.799Z,153.94
2023-03-22T19:55:14.837Z,144.68
2023-03-22T19:59:16.981Z,170.75
2023-03-22T20:03:14.954Z,150.70
2023-03-22T20:07:14.918Z,142.81
2023-03-22T20:11:27.615Z,152.56
2023-03-22T20:15:15.822Z,144.11
2023-03-22T20:19:14.869Z,143.96
2023-03-22T20:23:14.770Z,141.83
2023-03-22T20:27:15.549Z,149.50
2023-03-22T20:31:14.899Z,138.19
2023-03-22T20:35:15.022Z,134.33
2023-03-22T20:39:15.095Z,132.07
2023-03-22T20:43:15.216Z,132.14
2023-03-22T20:47:15.341Z,135.94
2023-03-22T20:51:15.486Z,154.71
2023-03-22T20:55:15.653Z,148.44
2023-03-22T20:59:15.779Z,133.75
2023-03-22T21:03:15.839Z,129.48
2023-03-22T21:07:15.893Z,133.94
2023-03-22T21:11:15.997Z,137.21
2023-03-22T21:15:16.126Z,143.32
2023-03-22T21:19:16.926Z,142.19
2023-03-22T21:23:16.297Z,138.99
2023-03-22T21:27:16.439Z,134.81
2023-03-22T21:31:16.557Z,135.49
2023-03-22T21:35:16.603Z,145.31
2023-03-22T21:39:16.767Z,141.49
2023-03-22T21:43:16.821Z,136.06
2023-03-22T21:47:16.986Z,137.34
2023-03-22T21:51:17.079Z,132.38
2023-03-22T21:55:17.229Z,115.83
2023-03-22T21:59:17.310Z,119.45
2023-03-22T22:03:17.454Z,149.73
2023-03-22T22:07:17.574Z,141.55
2023-03-22T22:11:17.708Z,140.78
2023-03-22T22:15:17.833Z,142.54
2023-03-22T22:19:18.061Z,144.60
2023-03-22T22:23:18.063Z,153.83
2023-03-22T22:27:18.217Z,147.29
2023-03-22T22:31:18.404Z,151.91
2023-03-22T22:35:18.506Z,144.09
2023-03-22T22:39:18.658Z,148.45
2023-03-22T22:43:18.730Z,142.32
2023-03-22T22:47:18.865Z,131.79
2023-03-22T22:51:18.933Z,137.01
2023-03-22T22:55:19.100Z,135.07
2023-03-22T22:59:19.192Z,144.20
2023-03-22T23:03:19.291Z,139.79
2023-03-22T23:07:19.404Z,148.06
2023-03-22T23:11:19.479Z,124.36
2023-03-22T23:15:27.069Z,121.47
2023-03-22T23:19:20.601Z,124.50
2023-03-22T23:23:19.569Z,124.92
2023-03-22T23:27:19.508Z,121.89
2023-03-22T23:31:19.694Z,121.00
2023-03-22T23:35:19.806Z,138.71
2023-03-22T23:39:19.874Z,144.25
2023-03-22T23:43:19.969Z,137.87
2023-03-22T23:47:20.173Z,134.33
2023-03-22T23:51:20.282Z,138.60
2023-03-22T23:55:20.421Z,137.72
2023-03-22T23:59:20.572Z,168.11
